sensor_id;sensor_type;location;lat;lon;timestamp;P1;durP1;ratioP1;P2;durP2;ratioP2
22606;SDS011;11470;20.968;105.834;2022-12-13T00:03:56;93.65;;;47.92;;
22606;SDS011;11470;20.968;105.834;2022-12-13T00:09:03;88.00;;;49.80;;
22606;SDS011;11470;20.968;105.834;2022-12-13T00:14:09;93.60;;;46.83;;
22606;SDS011;11470;20.968;105.834;2022-12-13T00:19:16;87.30;;;46.22;;
22606;SDS011;11470;20.968;105.834;2022-12-13T00:24:25;80.47;;;42.85;;
22606;SDS011;11470;20.968;105.834;2022-12-13T00:29:31;77.67;;;45.43;;
22606;SDS011;11470;20.968;105.834;2022-12-13T00:34:37;81.78;;;45.35;;
22606;SDS011;11470;20.968;105.834;2022-12-13T00:39:42;75.17;;;41.80;;
22606;SDS011;11470;20.968;105.834;2022-12-13T00:44:48;81.70;;;41.37;;
22606;SDS011;11470;20.968;105.834;2022-12-13T00:49:54;72.80;;;40.40;;
22606;SDS011;11470;20.968;105.834;2022-12-13T00:54:59;78.80;;;39.33;;
22606;SDS011;11470;20.968;105.834;2022-12-13T01:00:05;67.07;;;37.50;;
22606;SDS011;11470;20.968;105.834;2022-12-13T01:05:11;68.55;;;37.80;;
22606;SDS011;11470;20.968;105.834;2022-12-13T01:10:40;71.90;;;37.05;;
22606;SDS011;11470;20.968;105.834;2022-12-13T01:15:47;62.35;;;32.95;;
22606;SDS011;11470;20.968;105.834;2022-12-13T01:26:09;57.08;;;29.70;;
22606;SDS011;11470;20.968;105.834;2022-12-13T01:31:16;60.22;;;32.33;;
22606;SDS011;11470;20.968;105.834;2022-12-13T01:36:22;64.90;;;35.17;;
22606;SDS011;11470;20.968;105.834;2022-12-13T01:41:31;71.82;;;38.08;;
22606;SDS011;11470;20.968;105.834;2022-12-13T01:46:37;59.08;;;32.25;;
22606;SDS011;11470;20.968;105.834;2022-12-13T01:51:50;59.97;;;32.70;;
22606;SDS011;11470;20.968;105.834;2022-12-13T01:56:56;51.22;;;27.45;;
22606;SDS011;11470;20.968;105.834;2022-12-13T02:02:04;61.70;;;32.05;;
22606;SDS011;11470;20.968;105.834;2022-12-13T02:07:14;57.83;;;29.27;;
22606;SDS011;11470;20.968;105.834;2022-12-13T02:12:29;48.67;;;24.17;;
22606;SDS011;11470;20.968;105.834;2022-12-13T02:33:38;42.53;;;21.17;;
22606;SDS011;11470;20.968;105.834;2022-12-13T02:43:57;59.55;;;30.83;;
22606;SDS011;11470;20.968;105.834;2022-12-13T02:49:04;62.28;;;31.08;;
22606;SDS011;11470;20.968;105.834;2022-12-13T02:54:12;58.83;;;31.48;;
22606;SDS011;11470;20.968;105.834;2022-12-13T02:59:18;56.58;;;31.98;;
22606;SDS011;11470;20.968;105.834;2022-12-13T03:20:04;79.28;;;44.88;;
22606;SDS011;11470;20.968;105.834;2022-12-13T03:25:26;77.95;;;43.88;;
22606;SDS011;11470;20.968;105.834;2022-12-13T03:30:35;59.20;;;34.42;;
22606;SDS011;11470;20.968;105.834;2022-12-13T03:35:41;62.17;;;33.25;;
22606;SDS011;11470;20.968;105.834;2022-12-13T03:40:47;63.35;;;38.10;;
22606;SDS011;11470;20.968;105.834;2022-12-13T03:45:53;80.37;;;44.07;;
22606;SDS011;11470;20.968;105.834;2022-12-13T03:50:59;70.50;;;36.63;;
22606;SDS011;11470;20.968;105.834;2022-12-13T04:01:11;66.45;;;36.20;;
22606;SDS011;11470;20.968;105.834;2022-12-13T04:06:18;75.15;;;43.78;;
22606;SDS011;11470;20.968;105.834;2022-12-13T04:11:28;62.55;;;34.60;;
22606;SDS011;11470;20.968;105.834;2022-12-13T04:16:51;54.50;;;31.83;;
22606;SDS011;11470;20.968;105.834;2022-12-13T04:21:57;64.60;;;34.37;;
22606;SDS011;11470;20.968;105.834;2022-12-13T04:27:04;70.68;;;37.30;;
22606;SDS011;11470;20.968;105.834;2022-12-13T04:32:10;64.07;;;34.88;;
22606;SDS011;11470;20.968;105.834;2022-12-13T04:37:29;59.53;;;33.78;;
22606;SDS011;11470;20.968;105.834;2022-12-13T04:42:36;65.78;;;35.08;;
22606;SDS011;11470;20.968;105.834;2022-12-13T04:47:41;67.60;;;35.17;;
22606;SDS011;11470;20.968;105.834;2022-12-13T04:52:47;64.87;;;34.90;;
22606;SDS011;11470;20.968;105.834;2022-12-13T04:57:52;56.58;;;32.53;;
22606;SDS011;11470;20.968;105.834;2022-12-13T05:02:58;41.30;;;22.20;;
22606;SDS011;11470;20.968;105.834;2022-12-13T05:08:03;76.75;;;40.45;;
22606;SDS011;11470;20.968;105.834;2022-12-13T05:13:09;62.77;;;36.40;;
22606;SDS011;11470;20.968;105.834;2022-12-13T05:18:16;60.60;;;34.90;;
22606;SDS011;11470;20.968;105.834;2022-12-13T05:23:23;50.63;;;29.70;;
22606;SDS011;11470;20.968;105.834;2022-12-13T05:28:29;46.72;;;25.05;;
22606;SDS011;11470;20.968;105.834;2022-12-13T05:33:35;69.53;;;34.53;;
22606;SDS011;11470;20.968;105.834;2022-12-13T05:38:47;53.90;;;29.98;;
22606;SDS011;11470;20.968;105.834;2022-12-13T05:43:53;52.08;;;28.08;;
22606;SDS011;11470;20.968;105.834;2022-12-13T05:48:59;50.97;;;28.77;;
22606;SDS011;11470;20.968;105.834;2022-12-13T05:54:06;55.17;;;28.85;;
22606;SDS011;11470;20.968;105.834;2022-12-13T05:59:11;60.13;;;35.07;;
22606;SDS011;11470;20.968;105.834;2022-12-13T06:04:18;69.45;;;36.17;;
22606;SDS011;11470;20.968;105.834;2022-12-13T06:09:25;56.63;;;28.33;;
22606;SDS011;11470;20.968;105.834;2022-12-13T06:14:30;55.70;;;30.57;;
22606;SDS011;11470;20.968;105.834;2022-12-13T06:19:36;64.60;;;34.67;;
22606;SDS011;11470;20.968;105.834;2022-12-13T06:24:42;63.30;;;33.53;;
22606;SDS011;11470;20.968;105.834;2022-12-13T06:29:47;54.05;;;28.92;;
22606;SDS011;11470;20.968;105.834;2022-12-13T06:34:53;56.40;;;29.10;;
22606;SDS011;11470;20.968;105.834;2022-12-13T06:39:59;42.55;;;24.23;;
22606;SDS011;11470;20.968;105.834;2022-12-13T06:45:06;56.20;;;30.23;;
22606;SDS011;11470;20.968;105.834;2022-12-13T06:50:11;45.10;;;25.15;;
22606;SDS011;11470;20.968;105.834;2022-12-13T06:55:17;47.83;;;24.70;;
22606;SDS011;11470;20.968;105.834;2022-12-13T07:00:25;57.13;;;28.60;;
22606;SDS011;11470;20.968;105.834;2022-12-13T07:05:42;49.97;;;27.90;;
22606;SDS011;11470;20.968;105.834;2022-12-13T07:10:50;48.80;;;27.80;;
22606;SDS011;11470;20.968;105.834;2022-12-13T07:15:59;48.35;;;26.95;;
22606;SDS011;11470;20.968;105.834;2022-12-13T07:21:05;46.23;;;24.37;;
22606;SDS011;11470;20.968;105.834;2022-12-13T07:26:23;45.97;;;27.50;;
22606;SDS011;11470;20.968;105.834;2022-12-13T07:36:34;38.72;;;23.52;;
22606;SDS011;11470;20.968;105.834;2022-12-13T07:41:40;53.20;;;27.33;;
22606;SDS011;11470;20.968;105.834;2022-12-13T07:46:47;46.03;;;26.55;;
22606;SDS011;11470;20.968;105.834;2022-12-13T07:51:53;53.92;;;30.75;;
22606;SDS011;11470;20.968;105.834;2022-12-13T07:57:00;49.28;;;27.90;;
22606;SDS011;11470;20.968;105.834;2022-12-13T08:02:11;48.00;;;28.00;;
22606;SDS011;11470;20.968;105.834;2022-12-13T08:07:18;50.22;;;27.35;;
22606;SDS011;11470;20.968;105.834;2022-12-13T08:12:24;56.05;;;27.30;;
22606;SDS011;11470;20.968;105.834;2022-12-13T08:17:36;47.38;;;27.25;;
22606;SDS011;11470;20.968;105.834;2022-12-13T08:22:42;56.60;;;30.27;;
22606;SDS011;11470;20.968;105.834;2022-12-13T08:27:51;52.65;;;30.63;;
22606;SDS011;11470;20.968;105.834;2022-12-13T08:33:03;47.17;;;27.23;;
22606;SDS011;11470;20.968;105.834;2022-12-13T08:38:10;58.22;;;32.63;;
22606;SDS011;11470;20.968;105.834;2022-12-13T08:43:24;53.17;;;27.90;;
22606;SDS011;11470;20.968;105.834;2022-12-13T08:48:31;57.58;;;32.22;;
22606;SDS011;11470;20.968;105.834;2022-12-13T08:53:46;54.88;;;29.45;;
22606;SDS011;11470;20.968;105.834;2022-12-13T08:58:51;44.20;;;25.98;;
22606;SDS011;11470;20.968;105.834;2022-12-13T09:09:02;52.03;;;26.13;;
22606;SDS011;11470;20.968;105.834;2022-12-13T09:14:09;44.50;;;25.80;;
22606;SDS011;11470;20.968;105.834;2022-12-13T09:19:15;49.95;;;26.67;;
22606;SDS011;11470;20.968;105.834;2022-12-13T09:24:28;53.33;;;26.55;;
22606;SDS011;11470;20.968;105.834;2022-12-13T09:29:38;47.53;;;25.88;;
22606;SDS011;11470;20.968;105.834;2022-12-13T09:34:45;45.53;;;23.67;;
22606;SDS011;11470;20.968;105.834;2022-12-13T09:39:51;44.92;;;24.85;;
22606;SDS011;11470;20.968;105.834;2022-12-13T09:45:03;46.95;;;26.02;;
22606;SDS011;11470;20.968;105.834;2022-12-13T09:50:28;54.55;;;27.05;;
22606;SDS011;11470;20.968;105.834;2022-12-13T09:55:46;52.30;;;26.95;;
22606;SDS011;11470;20.968;105.834;2022-12-13T10:00:52;48.63;;;26.27;;
22606;SDS011;11470;20.968;105.834;2022-12-13T10:06:22;58.63;;;27.35;;
22606;SDS011;11470;20.968;105.834;2022-12-13T10:11:28;53.97;;;28.75;;
22606;SDS011;11470;20.968;105.834;2022-12-13T10:21:41;59.00;;;30.17;;
22606;SDS011;11470;20.968;105.834;2022-12-13T10:26:48;55.85;;;29.88;;
22606;SDS011;11470;20.968;105.834;2022-12-13T10:31:54;66.30;;;29.52;;
22606;SDS011;11470;20.968;105.834;2022-12-13T10:37:23;60.53;;;30.50;;
22606;SDS011;11470;20.968;105.834;2022-12-13T10:42:31;68.28;;;30.48;;
22606;SDS011;11470;20.968;105.834;2022-12-13T10:47:37;67.18;;;34.00;;
22606;SDS011;11470;20.968;105.834;2022-12-13T10:52:45;69.97;;;33.30;;
22606;SDS011;11470;20.968;105.834;2022-12-13T10:57:51;74.68;;;36.58;;
22606;SDS011;11470;20.968;105.834;2022-12-13T11:02:59;68.82;;;33.25;;
22606;SDS011;11470;20.968;105.834;2022-12-13T11:08:11;64.50;;;34.10;;
22606;SDS011;11470;20.968;105.834;2022-12-13T11:13:22;62.33;;;31.48;;
22606;SDS011;11470;20.968;105.834;2022-12-13T11:18:31;77.35;;;33.22;;
22606;SDS011;11470;20.968;105.834;2022-12-13T11:23:42;58.38;;;30.88;;
22606;SDS011;11470;20.968;105.834;2022-12-13T11:34:09;85.50;;;43.22;;
22606;SDS011;11470;20.968;105.834;2022-12-13T11:49:49;83.82;;;41.50;;
22606;SDS011;11470;20.968;105.834;2022-12-13T11:54:57;86.18;;;43.38;;
22606;SDS011;11470;20.968;105.834;2022-12-13T12:00:21;71.32;;;34.47;;
22606;SDS011;11470;20.968;105.834;2022-12-13T12:05:37;84.15;;;42.10;;
22606;SDS011;11470;20.968;105.834;2022-12-13T12:10:46;103.47;;;51.30;;
22606;SDS011;11470;20.968;105.834;2022-12-13T12:16:09;119.13;;;54.83;;
22606;SDS011;11470;20.968;105.834;2022-12-13T12:26:56;130.50;;;64.20;;
22606;SDS011;11470;20.968;105.834;2022-12-13T12:32:15;112.67;;;58.83;;
22606;SDS011;11470;20.968;105.834;2022-12-13T12:48:35;124.88;;;61.45;;
22606;SDS011;11470;20.968;105.834;2022-12-13T13:04:31;115.67;;;56.30;;
22606;SDS011;11470;20.968;105.834;2022-12-13T13:09:42;115.72;;;58.88;;
22606;SDS011;11470;20.968;105.834;2022-12-13T13:14:51;112.57;;;58.90;;
22606;SDS011;11470;20.968;105.834;2022-12-13T13:25:22;121.47;;;62.88;;
22606;SDS011;11470;20.968;105.834;2022-12-13T13:30:32;122.30;;;59.47;;
22606;SDS011;11470;20.968;105.834;2022-12-13T13:40:48;140.73;;;70.80;;
22606;SDS011;11470;20.968;105.834;2022-12-13T13:45:58;146.32;;;74.20;;
22606;SDS011;11470;20.968;105.834;2022-12-13T14:28:39;156.68;;;74.50;;
22606;SDS011;11470;20.968;105.834;2022-12-13T14:33:52;149.00;;;67.90;;
22606;SDS011;11470;20.968;105.834;2022-12-13T14:39:01;151.75;;;74.78;;
22606;SDS011;11470;20.968;105.834;2022-12-13T14:44:23;129.50;;;60.03;;
22606;SDS011;11470;20.968;105.834;2022-12-13T14:49:37;135.40;;;69.43;;
22606;SDS011;11470;20.968;105.834;2022-12-13T14:54:52;136.10;;;67.40;;
22606;SDS011;11470;20.968;105.834;2022-12-13T15:00:18;132.25;;;64.38;;
22606;SDS011;11470;20.968;105.834;2022-12-13T15:05:27;135.50;;;65.95;;
22606;SDS011;11470;20.968;105.834;2022-12-13T15:10:37;136.13;;;66.55;;
22606;SDS011;11470;20.968;105.834;2022-12-13T15:15:58;124.82;;;61.75;;
22606;SDS011;11470;20.968;105.834;2022-12-13T15:21:22;124.55;;;65.25;;
22606;SDS011;11470;20.968;105.834;2022-12-13T15:26:36;122.38;;;59.50;;
22606;SDS011;11470;20.968;105.834;2022-12-13T15:31:42;123.88;;;63.63;;
22606;SDS011;11470;20.968;105.834;2022-12-13T15:36:51;115.35;;;57.03;;
22606;SDS011;11470;20.968;105.834;2022-12-13T15:41:56;119.53;;;61.10;;
22606;SDS011;11470;20.968;105.834;2022-12-13T15:47:04;111.85;;;57.90;;
22606;SDS011;11470;20.968;105.834;2022-12-13T15:52:38;123.03;;;57.77;;
22606;SDS011;11470;20.968;105.834;2022-12-13T15:57:50;118.43;;;57.38;;
22606;SDS011;11470;20.968;105.834;2022-12-13T16:02:59;113.80;;;58.13;;
22606;SDS011;11470;20.968;105.834;2022-12-13T16:08:19;120.05;;;58.88;;
22606;SDS011;11470;20.968;105.834;2022-12-13T16:13:29;113.97;;;56.92;;
22606;SDS011;11470;20.968;105.834;2022-12-13T16:18:41;108.63;;;57.22;;
22606;SDS011;11470;20.968;105.834;2022-12-13T16:23:48;107.07;;;56.28;;
22606;SDS011;11470;20.968;105.834;2022-12-13T16:29:04;109.28;;;56.00;;
22606;SDS011;11470;20.968;105.834;2022-12-13T16:34:13;113.82;;;56.30;;
22606;SDS011;11470;20.968;105.834;2022-12-13T16:39:28;105.00;;;52.95;;
22606;SDS011;11470;20.968;105.834;2022-12-13T16:44:35;119.97;;;57.03;;
22606;SDS011;11470;20.968;105.834;2022-12-13T16:49:42;114.43;;;56.67;;
22606;SDS011;11470;20.968;105.834;2022-12-13T16:54:48;115.18;;;59.28;;
22606;SDS011;11470;20.968;105.834;2022-12-13T16:59:56;104.65;;;56.25;;
22606;SDS011;11470;20.968;105.834;2022-12-13T17:05:03;125.13;;;60.50;;
22606;SDS011;11470;20.968;105.834;2022-12-13T17:10:09;119.05;;;62.40;;
22606;SDS011;11470;20.968;105.834;2022-12-13T17:15:15;135.70;;;65.30;;
22606;SDS011;11470;20.968;105.834;2022-12-13T17:20:24;131.73;;;64.28;;
22606;SDS011;11470;20.968;105.834;2022-12-13T17:25:35;134.25;;;64.38;;
22606;SDS011;11470;20.968;105.834;2022-12-13T17:30:45;144.32;;;73.60;;
22606;SDS011;11470;20.968;105.834;2022-12-13T17:35:56;150.40;;;75.47;;
22606;SDS011;11470;20.968;105.834;2022-12-13T17:41:03;120.23;;;64.67;;
22606;SDS011;11470;20.968;105.834;2022-12-13T17:46:10;134.77;;;71.45;;
22606;SDS011;11470;20.968;105.834;2022-12-13T17:51:16;146.63;;;74.00;;
22606;SDS011;11470;20.968;105.834;2022-12-13T17:56:22;148.95;;;75.97;;
22606;SDS011;11470;20.968;105.834;2022-12-13T18:01:28;150.43;;;80.50;;
22606;SDS011;11470;20.968;105.834;2022-12-13T18:06:33;150.10;;;82.73;;
22606;SDS011;11470;20.968;105.834;2022-12-13T18:11:39;144.57;;;78.90;;
22606;SDS011;11470;20.968;105.834;2022-12-13T18:16:45;137.77;;;78.17;;
22606;SDS011;11470;20.968;105.834;2022-12-13T18:21:50;141.75;;;76.80;;
22606;SDS011;11470;20.968;105.834;2022-12-13T18:26:56;144.70;;;77.37;;
22606;SDS011;11470;20.968;105.834;2022-12-13T18:32:02;138.77;;;72.27;;
22606;SDS011;11470;20.968;105.834;2022-12-13T18:37:07;141.37;;;74.93;;
22606;SDS011;11470;20.968;105.834;2022-12-13T18:42:15;143.35;;;73.28;;
22606;SDS011;11470;20.968;105.834;2022-12-13T18:47:21;132.10;;;66.75;;
22606;SDS011;11470;20.968;105.834;2022-12-13T18:52:26;122.73;;;63.87;;
22606;SDS011;11470;20.968;105.834;2022-12-13T18:57:31;120.03;;;62.60;;
22606;SDS011;11470;20.968;105.834;2022-12-13T19:02:37;115.97;;;65.63;;
22606;SDS011;11470;20.968;105.834;2022-12-13T19:07:44;112.90;;;58.90;;
22606;SDS011;11470;20.968;105.834;2022-12-13T19:12:50;112.67;;;59.43;;
22606;SDS011;11470;20.968;105.834;2022-12-13T19:17:56;91.53;;;44.83;;
22606;SDS011;11470;20.968;105.834;2022-12-13T19:23:01;110.85;;;56.72;;
22606;SDS011;11470;20.968;105.834;2022-12-13T19:28:07;109.07;;;56.65;;
22606;SDS011;11470;20.968;105.834;2022-12-13T19:33:14;109.25;;;56.83;;
22606;SDS011;11470;20.968;105.834;2022-12-13T19:38:20;106.68;;;52.85;;
22606;SDS011;11470;20.968;105.834;2022-12-13T19:48:32;107.55;;;56.17;;
22606;SDS011;11470;20.968;105.834;2022-12-13T19:53:40;112.00;;;60.30;;
22606;SDS011;11470;20.968;105.834;2022-12-13T19:58:47;102.65;;;56.53;;
22606;SDS011;11470;20.968;105.834;2022-12-13T20:03:53;115.63;;;60.25;;
22606;SDS011;11470;20.968;105.834;2022-12-13T20:08:59;113.68;;;56.55;;
22606;SDS011;11470;20.968;105.834;2022-12-13T20:14:05;102.50;;;53.17;;
22606;SDS011;11470;20.968;105.834;2022-12-13T20:19:11;94.20;;;50.33;;
22606;SDS011;11470;20.968;105.834;2022-12-13T20:24:17;94.07;;;48.30;;
22606;SDS011;11470;20.968;105.834;2022-12-13T20:29:24;101.78;;;52.28;;
22606;SDS011;11470;20.968;105.834;2022-12-13T20:34:30;107.75;;;55.58;;
22606;SDS011;11470;20.968;105.834;2022-12-13T20:39:37;91.93;;;42.63;;
22606;SDS011;11470;20.968;105.834;2022-12-13T20:44:43;89.40;;;44.25;;
22606;SDS011;11470;20.968;105.834;2022-12-13T20:49:49;105.37;;;53.07;;
22606;SDS011;11470;20.968;105.834;2022-12-13T20:54:55;77.20;;;32.40;;
22606;SDS011;11470;20.968;105.834;2022-12-13T21:00:02;71.63;;;37.30;;
22606;SDS011;11470;20.968;105.834;2022-12-13T21:05:08;98.75;;;46.72;;
22606;SDS011;11470;20.968;105.834;2022-12-13T21:10:22;89.70;;;42.88;;
22606;SDS011;11470;20.968;105.834;2022-12-13T21:15:27;112.20;;;53.07;;
22606;SDS011;11470;20.968;105.834;2022-12-13T21:20:33;99.10;;;53.13;;
22606;SDS011;11470;20.968;105.834;2022-12-13T21:25:38;103.97;;;52.63;;
22606;SDS011;11470;20.968;105.834;2022-12-13T21:30:45;95.95;;;49.97;;
22606;SDS011;11470;20.968;105.834;2022-12-13T21:35:50;73.63;;;37.75;;
22606;SDS011;11470;20.968;105.834;2022-12-13T21:40:56;94.40;;;49.87;;
22606;SDS011;11470;20.968;105.834;2022-12-13T21:46:02;98.85;;;52.35;;
22606;SDS011;11470;20.968;105.834;2022-12-13T21:51:12;107.72;;;56.85;;
22606;SDS011;11470;20.968;105.834;2022-12-13T21:56:22;109.18;;;55.45;;
22606;SDS011;11470;20.968;105.834;2022-12-13T22:01:51;117.10;;;62.72;;
22606;SDS011;11470;20.968;105.834;2022-12-13T22:07:18;87.85;;;45.03;;
22606;SDS011;11470;20.968;105.834;2022-12-13T22:17:33;99.15;;;53.25;;
22606;SDS011;11470;20.968;105.834;2022-12-13T22:22:40;101.18;;;52.90;;
22606;SDS011;11470;20.968;105.834;2022-12-13T22:27:47;103.38;;;51.42;;
22606;SDS011;11470;20.968;105.834;2022-12-13T22:32:52;101.50;;;52.70;;
22606;SDS011;11470;20.968;105.834;2022-12-13T22:37:58;101.97;;;51.73;;
22606;SDS011;11470;20.968;105.834;2022-12-13T22:43:06;93.80;;;50.08;;
22606;SDS011;11470;20.968;105.834;2022-12-13T22:48:14;98.40;;;50.05;;
22606;SDS011;11470;20.968;105.834;2022-12-13T22:53:20;84.93;;;43.88;;
22606;SDS011;11470;20.968;105.834;2022-12-13T22:58:25;94.45;;;45.72;;
22606;SDS011;11470;20.968;105.834;2022-12-13T23:03:31;81.67;;;43.23;;
22606;SDS011;11470;20.968;105.834;2022-12-13T23:08:37;86.07;;;41.17;;
22606;SDS011;11470;20.968;105.834;2022-12-13T23:13:48;76.35;;;36.50;;
22606;SDS011;11470;20.968;105.834;2022-12-13T23:18:54;81.13;;;36.63;;
22606;SDS011;11470;20.968;105.834;2022-12-13T23:24:20;72.93;;;33.87;;
22606;SDS011;11470;20.968;105.834;2022-12-13T23:29:26;77.17;;;41.17;;
22606;SDS011;11470;20.968;105.834;2022-12-13T23:34:32;74.10;;;32.17;;
22606;SDS011;11470;20.968;105.834;2022-12-13T23:39:38;68.70;;;30.50;;
22606;SDS011;11470;20.968;105.834;2022-12-13T23:44:45;77.60;;;38.20;;
22606;SDS011;11470;20.968;105.834;2022-12-13T23:49:50;73.95;;;37.63;;
22606;SDS011;11470;20.968;105.834;2022-12-13T23:54:55;77.80;;;40.25;;
